sensor_id;sensor_type;location;lat;lon;timestamp;pressure;altitude;pressure_sealevel;temperature;humidity
24440;BME280;12618;54.386;18.394;2022-08-02T00:02:16;99705.52;;;17.44;79.15
24440;BME280;12618;54.386;18.394;2022-08-02T00:04:47;99700.66;;;17.43;79.29
24440;BME280;12618;54.386;18.394;2022-08-02T00:07:18;99701.73;;;17.41;79.56
24440;BME280;12618;54.386;18.394;2022-08-02T00:09:48;99706.95;;;17.42;79.71
24440;BME280;12618;54.386;18.394;2022-08-02T00:12:19;99703.06;;;17.41;79.96
24440;BME280;12618;54.386;18.394;2022-08-02T00:14:50;99708.03;;;17.40;80.87
24440;BME280;12618;54.386;18.394;2022-08-02T00:17:21;99707.77;;;17.37;80.38
24440;BME280;12618;54.386;18.394;2022-08-02T00:19:52;99700.14;;;17.33;79.78
24440;BME280;12618;54.386;18.394;2022-08-02T00:22:23;99706.77;;;17.27;80.39
24440;BME280;12618;54.386;18.394;2022-08-02T00:24:54;99700.21;;;17.20;80.10
24440;BME280;12618;54.386;18.394;2022-08-02T00:27:24;99703.80;;;17.08;80.27
24440;BME280;12618;54.386;18.394;2022-08-02T00:29:55;99704.13;;;17.03;80.43
24440;BME280;12618;54.386;18.394;2022-08-02T00:32:26;99701.23;;;17.01;80.36
24440;BME280;12618;54.386;18.394;2022-08-02T00:34:57;99702.42;;;17.02;80.61
24440;BME280;12618;54.386;18.394;2022-08-02T00:37:28;99711.69;;;17.09;80.96
24440;BME280;12618;54.386;18.394;2022-08-02T00:39:59;99712.28;;;17.13;80.89
24440;BME280;12618;54.386;18.394;2022-08-02T00:42:31;99712.16;;;17.09;80.91
24440;BME280;12618;54.386;18.394;2022-08-02T00:45:02;99710.42;;;17.02;81.26
24440;BME280;12618;54.386;18.394;2022-08-02T00:47:33;99708.86;;;17.00;82.40
24440;BME280;12618;54.386;18.394;2022-08-02T00:50:04;99709.88;;;17.10;85.23
24440;BME280;12618;54.386;18.394;2022-08-02T00:52:35;99712.44;;;17.17;84.09
24440;BME280;12618;54.386;18.394;2022-08-02T00:55:07;99715.37;;;17.25;85.23
24440;BME280;12618;54.386;18.394;2022-08-02T00:57:38;99714.92;;;17.31;85.08
24440;BME280;12618;54.386;18.394;2022-08-02T01:00:09;99714.92;;;17.37;87.41
24440;BME280;12618;54.386;18.394;2022-08-02T01:02:40;99706.59;;;17.41;87.24
24440;BME280;12618;54.386;18.394;2022-08-02T01:05:11;99709.14;;;17.48;86.29
24440;BME280;12618;54.386;18.394;2022-08-02T01:07:42;99707.36;;;17.55;85.81
24440;BME280;12618;54.386;18.394;2022-08-02T01:10:13;99708.69;;;17.60;86.48
24440;BME280;12618;54.386;18.394;2022-08-02T01:12:44;99704.09;;;17.62;86.01
24440;BME280;12618;54.386;18.394;2022-08-02T01:15:17;99703.23;;;17.62;86.06
24440;BME280;12618;54.386;18.394;2022-08-02T01:18:05;99706.31;;;17.63;85.99
24440;BME280;12618;54.386;18.394;2022-08-02T01:24:00;99704.20;;;17.61;85.94
24440;BME280;12618;54.386;18.394;2022-08-02T01:26:36;99702.67;;;17.64;86.97
24440;BME280;12618;54.386;18.394;2022-08-02T01:29:19;99702.88;;;17.61;87.12
24440;BME280;12618;54.386;18.394;2022-08-02T01:37:21;99710.31;;;17.63;87.22
24440;BME280;12618;54.386;18.394;2022-08-02T01:39:56;99709.34;;;17.64;87.19
24440;BME280;12618;54.386;18.394;2022-08-02T01:42:28;99715.91;;;17.65;88.99
24440;BME280;12618;54.386;18.394;2022-08-02T01:45:02;99717.95;;;17.67;88.71
24440;BME280;12618;54.386;18.394;2022-08-02T01:47:34;99720.50;;;17.69;88.88
24440;BME280;12618;54.386;18.394;2022-08-02T01:50:08;99713.46;;;17.68;87.93
24440;BME280;12618;54.386;18.394;2022-08-02T01:52:46;99715.91;;;17.71;89.18
24440;BME280;12618;54.386;18.394;2022-08-02T01:55:23;99712.61;;;17.67;87.90
24440;BME280;12618;54.386;18.394;2022-08-02T01:57:57;99712.02;;;17.64;87.53
24440;BME280;12618;54.386;18.394;2022-08-02T02:00:31;99719.66;;;17.63;87.91
24440;BME280;12618;54.386;18.394;2022-08-02T02:03:01;99714.14;;;17.59;87.38
24440;BME280;12618;54.386;18.394;2022-08-02T02:05:35;99713.41;;;17.57;89.54
24440;BME280;12618;54.386;18.394;2022-08-02T02:08:07;99725.07;;;17.56;87.53
24440;BME280;12618;54.386;18.394;2022-08-02T02:10:39;99720.08;;;17.51;87.14
24440;BME280;12618;54.386;18.394;2022-08-02T02:13:17;99728.30;;;17.48;87.55
24440;BME280;12618;54.386;18.394;2022-08-02T02:15:51;99730.59;;;17.41;87.52
24440;BME280;12618;54.386;18.394;2022-08-02T02:18:24;99733.48;;;17.38;87.73
24440;BME280;12618;54.386;18.394;2022-08-02T02:20:57;99729.48;;;17.33;87.84
24440;BME280;12618;54.386;18.394;2022-08-02T02:23:28;99726.29;;;17.22;89.91
24440;BME280;12618;54.386;18.394;2022-08-02T02:26:00;99731.47;;;17.18;89.00
24440;BME280;12618;54.386;18.394;2022-08-02T02:28:33;99730.95;;;17.13;88.17
24440;BME280;12618;54.386;18.394;2022-08-02T02:31:09;99730.45;;;17.08;89.56
24440;BME280;12618;54.386;18.394;2022-08-02T02:33:49;99730.41;;;17.02;89.13
24440;BME280;12618;54.386;18.394;2022-08-02T02:36:21;99735.15;;;16.99;89.04
24440;BME280;12618;54.386;18.394;2022-08-02T02:38:53;99730.77;;;16.98;88.88
24440;BME280;12618;54.386;18.394;2022-08-02T02:41:25;99743.73;;;16.97;89.32
24440;BME280;12618;54.386;18.394;2022-08-02T02:43:59;99736.55;;;16.92;88.99
24440;BME280;12618;54.386;18.394;2022-08-02T02:46:32;99735.83;;;16.90;89.47
24440;BME280;12618;54.386;18.394;2022-08-02T02:49:03;99743.67;;;16.86;89.29
24440;BME280;12618;54.386;18.394;2022-08-02T02:51:35;99742.92;;;16.84;89.53
24440;BME280;12618;54.386;18.394;2022-08-02T02:54:11;99747.14;;;16.81;89.45
24440;BME280;12618;54.386;18.394;2022-08-02T02:56:43;99755.38;;;16.78;90.97
24440;BME280;12618;54.386;18.394;2022-08-02T02:59:15;99751.59;;;16.74;90.29
24440;BME280;12618;54.386;18.394;2022-08-02T03:01:47;99756.29;;;16.71;90.35
24440;BME280;12618;54.386;18.394;2022-08-02T03:04:19;99753.14;;;16.71;90.18
24440;BME280;12618;54.386;18.394;2022-08-02T03:06:51;99754.95;;;16.71;91.92
24440;BME280;12618;54.386;18.394;2022-08-02T03:09:22;99756.02;;;16.68;90.02
24440;BME280;12618;54.386;18.394;2022-08-02T03:11:54;99753.59;;;16.65;90.49
24440;BME280;12618;54.386;18.394;2022-08-02T03:14:25;99760.47;;;16.62;91.07
24440;BME280;12618;54.386;18.394;2022-08-02T03:16:56;99760.47;;;16.62;90.42
24440;BME280;12618;54.386;18.394;2022-08-02T03:19:26;99759.70;;;16.60;90.28
24440;BME280;12618;54.386;18.394;2022-08-02T03:21:57;99759.22;;;16.61;90.19
24440;BME280;12618;54.386;18.394;2022-08-02T03:24:28;99759.22;;;16.61;90.45
24440;BME280;12618;54.386;18.394;2022-08-02T03:26:59;99758.36;;;16.60;90.62
24440;BME280;12618;54.386;18.394;2022-08-02T03:29:29;99757.98;;;16.59;90.76
24440;BME280;12618;54.386;18.394;2022-08-02T03:32:00;99760.89;;;16.56;91.25
24440;BME280;12618;54.386;18.394;2022-08-02T03:34:31;99765.48;;;16.54;90.42
24440;BME280;12618;54.386;18.394;2022-08-02T03:37:02;99767.42;;;16.58;91.15
24440;BME280;12618;54.386;18.394;2022-08-02T03:39:33;99768.84;;;16.63;91.25
24440;BME280;12618;54.386;18.394;2022-08-02T03:42:05;99765.00;;;16.67;91.25
24440;BME280;12618;54.386;18.394;2022-08-02T03:44:37;99774.56;;;16.70;91.23
24440;BME280;12618;54.386;18.394;2022-08-02T03:47:10;99773.02;;;16.73;91.88
24440;BME280;12618;54.386;18.394;2022-08-02T03:49:42;99777.02;;;16.73;91.67
24440;BME280;12618;54.386;18.394;2022-08-02T03:52:13;99779.47;;;16.76;91.33
24440;BME280;12618;54.386;18.394;2022-08-02T03:54:45;99786.75;;;16.80;91.00
24440;BME280;12618;54.386;18.394;2022-08-02T03:57:16;99781.66;;;16.77;91.47
24440;BME280;12618;54.386;18.394;2022-08-02T03:59:47;99786.99;;;16.77;91.31
24440;BME280;12618;54.386;18.394;2022-08-02T04:02:18;99786.24;;;16.74;91.33
24440;BME280;12618;54.386;18.394;2022-08-02T04:04:49;99790.98;;;16.77;91.82
24440;BME280;12618;54.386;18.394;2022-08-02T04:07:19;99793.06;;;16.79;91.91
24440;BME280;12618;54.386;18.394;2022-08-02T04:09:51;99792.93;;;16.80;91.80
24440;BME280;12618;54.386;18.394;2022-08-02T04:12:21;99799.48;;;16.82;91.43
24440;BME280;12618;54.386;18.394;2022-08-02T04:14:52;99794.64;;;16.81;91.79
24440;BME280;12618;54.386;18.394;2022-08-02T04:17:25;99794.31;;;16.86;92.16
24440;BME280;12618;54.386;18.394;2022-08-02T04:20:13;99798.69;;;16.87;91.74
24440;BME280;12618;54.386;18.394;2022-08-02T04:22:50;99799.44;;;16.89;92.31
24440;BME280;12618;54.386;18.394;2022-08-02T04:25:22;99798.95;;;16.89;93.62
24440;BME280;12618;54.386;18.394;2022-08-02T04:27:53;99800.61;;;16.85;92.38
24440;BME280;12618;54.386;18.394;2022-08-02T04:30:24;99804.63;;;16.90;92.23
24440;BME280;12618;54.386;18.394;2022-08-02T04:32:56;99803.45;;;16.94;92.49
24440;BME280;12618;54.386;18.394;2022-08-02T04:35:28;99804.68;;;16.96;92.88
24440;BME280;12618;54.386;18.394;2022-08-02T04:37:59;99810.17;;;17.00;92.08
24440;BME280;12618;54.386;18.394;2022-08-02T04:40:30;99816.97;;;17.04;92.21
24440;BME280;12618;54.386;18.394;2022-08-02T04:43:00;99820.16;;;17.09;92.41
24440;BME280;12618;54.386;18.394;2022-08-02T04:45:32;99827.20;;;17.10;92.88
24440;BME280;12618;54.386;18.394;2022-08-02T04:48:03;99825.50;;;17.09;92.48
24440;BME280;12618;54.386;18.394;2022-08-02T04:50:34;99820.53;;;17.10;92.66
24440;BME280;12618;54.386;18.394;2022-08-02T04:53:05;99818.62;;;17.12;92.36
24440;BME280;12618;54.386;18.394;2022-08-02T04:55:36;99817.03;;;17.15;92.43
24440;BME280;12618;54.386;18.394;2022-08-02T04:58:06;99816.71;;;17.20;92.67
24440;BME280;12618;54.386;18.394;2022-08-02T05:00:37;99821.94;;;17.21;92.33
24440;BME280;12618;54.386;18.394;2022-08-02T05:03:08;99829.69;;;17.24;92.19
24440;BME280;12618;54.386;18.394;2022-08-02T05:05:39;99828.14;;;17.27;91.91
24440;BME280;12618;54.386;18.394;2022-08-02T05:08:10;99835.34;;;17.32;91.80
24440;BME280;12618;54.386;18.394;2022-08-02T05:10:41;99836.20;;;17.38;91.73
24440;BME280;12618;54.386;18.394;2022-08-02T05:13:12;99841.11;;;17.44;91.24
24440;BME280;12618;54.386;18.394;2022-08-02T05:15:43;99838.78;;;17.45;91.03
24440;BME280;12618;54.386;18.394;2022-08-02T05:18:14;99846.34;;;17.52;90.81
24440;BME280;12618;54.386;18.394;2022-08-02T05:20:44;99856.80;;;17.55;90.52
24440;BME280;12618;54.386;18.394;2022-08-02T05:23:15;99855.59;;;17.59;89.80
24440;BME280;12618;54.386;18.394;2022-08-02T05:25:48;99854.99;;;17.61;89.72
24440;BME280;12618;54.386;18.394;2022-08-02T05:28:18;99859.30;;;17.69;89.73
24440;BME280;12618;54.386;18.394;2022-08-02T05:30:50;99856.56;;;17.76;89.74
24440;BME280;12618;54.386;18.394;2022-08-02T05:33:21;99862.53;;;17.85;89.06
24440;BME280;12618;54.386;18.394;2022-08-02T05:35:56;99866.44;;;17.92;88.38
24440;BME280;12618;54.386;18.394;2022-08-02T05:38:24;99873.63;;;17.97;87.78
24440;BME280;12618;54.386;18.394;2022-08-02T05:40:57;99872.19;;;18.04;86.91
24440;BME280;12618;54.386;18.394;2022-08-02T05:43:28;99869.55;;;18.10;86.43
24440;BME280;12618;54.386;18.394;2022-08-02T05:45:59;99873.78;;;18.12;85.94
24440;BME280;12618;54.386;18.394;2022-08-02T05:48:30;99874.30;;;18.17;85.68
24440;BME280;12618;54.386;18.394;2022-08-02T05:51:03;99877.45;;;18.23;86.30
24440;BME280;12618;54.386;18.394;2022-08-02T05:56:20;99881.00;;;18.34;81.80
24440;BME280;12618;54.386;18.394;2022-08-02T05:59:02;99876.88;;;18.36;83.44
24440;BME280;12618;54.386;18.394;2022-08-02T06:01:34;99877.98;;;18.39;83.08
24440;BME280;12618;54.386;18.394;2022-08-02T06:04:10;99880.53;;;18.46;82.98
24440;BME280;12618;54.386;18.394;2022-08-02T06:06:42;99875.67;;;18.45;82.13
24440;BME280;12618;54.386;18.394;2022-08-02T06:09:15;99881.89;;;18.51;79.75
24440;BME280;12618;54.386;18.394;2022-08-02T06:11:48;99884.36;;;18.60;82.30
24440;BME280;12618;54.386;18.394;2022-08-02T06:14:21;99878.29;;;18.69;80.04
24440;BME280;12618;54.386;18.394;2022-08-02T06:16:52;99885.84;;;18.75;79.84
24440;BME280;12618;54.386;18.394;2022-08-02T06:19:25;99883.53;;;18.76;77.09
24440;BME280;12618;54.386;18.394;2022-08-02T06:21:56;99886.45;;;18.84;80.49
24440;BME280;12618;54.386;18.394;2022-08-02T06:24:30;99886.08;;;18.95;80.12
24440;BME280;12618;54.386;18.394;2022-08-02T06:27:03;99886.91;;;19.01;77.72
24440;BME280;12618;54.386;18.394;2022-08-02T06:29:34;99897.50;;;19.19;74.03
24440;BME280;12618;54.386;18.394;2022-08-02T06:32:06;99896.31;;;19.72;76.51
24440;BME280;12618;54.386;18.394;2022-08-02T06:34:38;99895.70;;;20.26;73.83
24440;BME280;12618;54.386;18.394;2022-08-02T06:40:26;99897.81;;;21.25;68.48
24440;BME280;12618;54.386;18.394;2022-08-02T06:43:05;99894.26;;;21.94;71.17
24440;BME280;12618;54.386;18.394;2022-08-02T06:45:37;99889.93;;;22.78;66.28
24440;BME280;12618;54.386;18.394;2022-08-02T06:48:08;99906.08;;;23.52;62.45
24440;BME280;12618;54.386;18.394;2022-08-02T06:50:40;99907.20;;;23.99;61.86
24440;BME280;12618;54.386;18.394;2022-08-02T06:53:11;99903.16;;;24.34;61.61
24440;BME280;12618;54.386;18.394;2022-08-02T06:55:42;99902.46;;;25.01;66.17
24440;BME280;12618;54.386;18.394;2022-08-02T06:58:13;99903.56;;;25.17;62.68
24440;BME280;12618;54.386;18.394;2022-08-02T07:00:44;99903.58;;;25.67;62.82
24440;BME280;12618;54.386;18.394;2022-08-02T07:03:14;99906.34;;;26.07;61.80
24440;BME280;12618;54.386;18.394;2022-08-02T07:05:45;99913.80;;;26.66;59.93
24440;BME280;12618;54.386;18.394;2022-08-02T07:08:18;99916.61;;;27.57;57.01
24440;BME280;12618;54.386;18.394;2022-08-02T07:10:49;99916.42;;;28.12;49.74
24440;BME280;12618;54.386;18.394;2022-08-02T07:13:20;99915.60;;;28.72;56.63
24440;BME280;12618;54.386;18.394;2022-08-02T07:15:51;99912.72;;;29.32;54.27
24440;BME280;12618;54.386;18.394;2022-08-02T07:18:23;99916.50;;;29.71;53.56
24440;BME280;12618;54.386;18.394;2022-08-02T07:20:54;99914.64;;;29.82;47.70
24440;BME280;12618;54.386;18.394;2022-08-02T07:23:26;99920.80;;;29.40;51.01
24440;BME280;12618;54.386;18.394;2022-08-02T07:25:57;99927.33;;;29.60;45.36
24440;BME280;12618;54.386;18.394;2022-08-02T07:28:27;99925.22;;;29.66;47.03
24440;BME280;12618;54.386;18.394;2022-08-02T07:30:58;99931.05;;;29.38;41.47
24440;BME280;12618;54.386;18.394;2022-08-02T07:33:29;99941.38;;;29.53;41.86
24440;BME280;12618;54.386;18.394;2022-08-02T07:36:00;99940.72;;;29.77;41.48
24440;BME280;12618;54.386;18.394;2022-08-02T07:38:32;99946.12;;;29.81;37.60
24440;BME280;12618;54.386;18.394;2022-08-02T07:41:03;99934.50;;;29.83;40.69
24440;BME280;12618;54.386;18.394;2022-08-02T07:43:34;99946.72;;;29.72;37.95
24440;BME280;12618;54.386;18.394;2022-08-02T07:46:05;99940.91;;;29.75;39.91
24440;BME280;12618;54.386;18.394;2022-08-02T07:48:38;99944.63;;;29.89;37.90
24440;BME280;12618;54.386;18.394;2022-08-02T07:51:08;99940.60;;;30.10;38.27
24440;BME280;12618;54.386;18.394;2022-08-02T07:53:39;99924.40;;;30.55;37.77
24440;BME280;12618;54.386;18.394;2022-08-02T07:56:10;99933.14;;;31.06;37.91
24440;BME280;12618;54.386;18.394;2022-08-02T07:58:41;99932.69;;;31.31;37.25
24440;BME280;12618;54.386;18.394;2022-08-02T08:01:12;99940.31;;;31.90;35.67
24440;BME280;12618;54.386;18.394;2022-08-02T08:03:43;99937.99;;;31.93;35.75
24440;BME280;12618;54.386;18.394;2022-08-02T08:06:14;99937.55;;;32.13;35.35
24440;BME280;12618;54.386;18.394;2022-08-02T08:08:44;99932.61;;;31.82;33.23
24440;BME280;12618;54.386;18.394;2022-08-02T08:11:15;99935.66;;;31.77;34.61
24440;BME280;12618;54.386;18.394;2022-08-02T08:13:46;99932.45;;;31.91;32.63
24440;BME280;12618;54.386;18.394;2022-08-02T08:16:17;99929.00;;;32.06;32.85
24440;BME280;12618;54.386;18.394;2022-08-02T08:18:48;99935.71;;;32.67;32.31
24440;BME280;12618;54.386;18.394;2022-08-02T08:21:19;99946.94;;;33.14;32.16
24440;BME280;12618;54.386;18.394;2022-08-02T08:23:50;99940.20;;;33.52;29.74
24440;BME280;12618;54.386;18.394;2022-08-02T08:26:21;99940.90;;;33.63;28.00
24440;BME280;12618;54.386;18.394;2022-08-02T08:28:52;99949.41;;;33.42;29.80
24440;BME280;12618;54.386;18.394;2022-08-02T08:31:23;99952.83;;;33.04;29.24
24440;BME280;12618;54.386;18.394;2022-08-02T08:33:53;99957.14;;;32.43;28.84
24440;BME280;12618;54.386;18.394;2022-08-02T08:36:24;99965.00;;;32.29;29.59
24440;BME280;12618;54.386;18.394;2022-08-02T08:38:56;99958.53;;;32.70;29.71
24440;BME280;12618;54.386;18.394;2022-08-02T08:41:27;99949.69;;;32.94;26.83
24440;BME280;12618;54.386;18.394;2022-08-02T08:43:58;99952.70;;;33.21;28.22
24440;BME280;12618;54.386;18.394;2022-08-02T08:46:31;99953.41;;;33.39;26.89
24440;BME280;12618;54.386;18.394;2022-08-02T08:49:50;99948.62;;;33.86;28.22
24440;BME280;12618;54.386;18.394;2022-08-02T08:51:44;99945.13;;;33.88;27.35
24440;BME280;12618;54.386;18.394;2022-08-02T08:54:16;99945.83;;;33.92;27.37
24440;BME280;12618;54.386;18.394;2022-08-02T08:56:47;99947.12;;;34.28;26.58
24440;BME280;12618;54.386;18.394;2022-08-02T08:59:18;99948.41;;;33.81;24.47
24440;BME280;12618;54.386;18.394;2022-08-02T09:01:49;99950.88;;;33.80;25.67
24440;BME280;12618;54.386;18.394;2022-08-02T09:04:20;99956.98;;;33.75;24.48
24440;BME280;12618;54.386;18.394;2022-08-02T09:06:51;99958.80;;;33.59;24.12
24440;BME280;12618;54.386;18.394;2022-08-02T09:09:22;99958.62;;;33.83;24.95
24440;BME280;12618;54.386;18.394;2022-08-02T09:11:53;99958.92;;;33.90;25.28
24440;BME280;12618;54.386;18.394;2022-08-02T09:14:27;99960.12;;;33.72;25.23
24440;BME280;12618;54.386;18.394;2022-08-02T09:17:06;99954.79;;;33.68;25.12
24440;BME280;12618;54.386;18.394;2022-08-02T09:19:38;99955.96;;;33.21;25.32
24440;BME280;12618;54.386;18.394;2022-08-02T09:22:11;99951.44;;;33.31;25.40
24440;BME280;12618;54.386;18.394;2022-08-02T09:24:45;99960.02;;;33.70;25.23
24440;BME280;12618;54.386;18.394;2022-08-02T09:27:19;99964.80;;;33.65;24.56
24440;BME280;12618;54.386;18.394;2022-08-02T09:29:52;99958.24;;;33.79;24.67
24440;BME280;12618;54.386;18.394;2022-08-02T09:32:23;99957.61;;;34.00;24.01
24440;BME280;12618;54.386;18.394;2022-08-02T09:34:54;99959.73;;;33.69;25.02
24440;BME280;12618;54.386;18.394;2022-08-02T09:37:29;99959.42;;;33.68;23.60
24440;BME280;12618;54.386;18.394;2022-08-02T09:40:00;99958.11;;;33.48;24.46
24440;BME280;12618;54.386;18.394;2022-08-02T09:42:32;99954.20;;;33.53;24.94
24440;BME280;12618;54.386;18.394;2022-08-02T09:45:04;99956.52;;;33.07;25.07
24440;BME280;12618;54.386;18.394;2022-08-02T09:47:35;99965.25;;;33.13;24.46
24440;BME280;12618;54.386;18.394;2022-08-02T09:50:06;99962.51;;;33.13;25.24
24440;BME280;12618;54.386;18.394;2022-08-02T09:52:40;99965.67;;;33.23;25.51
24440;BME280;12618;54.386;18.394;2022-08-02T09:55:12;99951.53;;;33.62;25.42
24440;BME280;12618;54.386;18.394;2022-08-02T09:57:43;99954.59;;;33.63;24.74
24440;BME280;12618;54.386;18.394;2022-08-02T10:00:15;99953.20;;;33.41;24.40
24440;BME280;12618;54.386;18.394;2022-08-02T10:03:10;99952.70;;;33.21;24.23
24440;BME280;12618;54.386;18.394;2022-08-02T10:05:46;99946.22;;;32.96;24.61
24440;BME280;12618;54.386;18.394;2022-08-02T10:08:21;99942.85;;;32.94;24.77
24440;BME280;12618;54.386;18.394;2022-08-02T10:10:52;99947.80;;;32.68;25.04
24440;BME280;12618;54.386;18.394;2022-08-02T10:13:32;99953.25;;;32.62;24.33
24440;BME280;12618;54.386;18.394;2022-08-02T10:16:04;99946.77;;;32.76;25.01
24440;BME280;12618;54.386;18.394;2022-08-02T10:18:36;99944.20;;;33.07;24.81
24440;BME280;12618;54.386;18.394;2022-08-02T10:21:19;99931.30;;;33.41;24.51
24440;BME280;12618;54.386;18.394;2022-08-02T10:23:50;99924.48;;;33.63;24.34
24440;BME280;12618;54.386;18.394;2022-08-02T10:26:22;99924.58;;;33.37;24.12
24440;BME280;12618;54.386;18.394;2022-08-02T10:28:54;99923.77;;;33.16;24.75
24440;BME280;12618;54.386;18.394;2022-08-02T10:31:29;99930.14;;;33.46;24.97
24440;BME280;12618;54.386;18.394;2022-08-02T10:34:00;99925.29;;;33.77;24.64
24440;BME280;12618;54.386;18.394;2022-08-02T10:36:32;99923.69;;;33.49;23.99
24440;BME280;12618;54.386;18.394;2022-08-02T10:39:05;99930.36;;;33.38;24.25
24440;BME280;12618;54.386;18.394;2022-08-02T10:41:51;99929.06;;;33.24;23.86
24440;BME280;12618;54.386;18.394;2022-08-02T10:44:30;99929.91;;;32.92;24.32
24440;BME280;12618;54.386;18.394;2022-08-02T10:47:22;99933.92;;;32.83;24.31
24440;BME280;12618;54.386;18.394;2022-08-02T10:49:56;99933.69;;;32.38;24.18
24440;BME280;12618;54.386;18.394;2022-08-02T10:52:28;99926.55;;;32.37;24.00
24440;BME280;12618;54.386;18.394;2022-08-02T10:55:02;99940.13;;;32.35;24.31
24440;BME280;12618;54.386;18.394;2022-08-02T10:57:34;99927.95;;;32.00;23.93
24440;BME280;12618;54.386;18.394;2022-08-02T11:00:12;99925.34;;;31.72;24.50
24440;BME280;12618;54.386;18.394;2022-08-02T11:02:44;99919.67;;;31.67;24.50
24440;BME280;12618;54.386;18.394;2022-08-02T11:05:32;99919.75;;;31.63;24.86
24440;BME280;12618;54.386;18.394;2022-08-02T11:08:20;99930.28;;;31.32;24.72
24440;BME280;12618;54.386;18.394;2022-08-02T11:10:57;99922.63;;;30.69;25.60
24440;BME280;12618;54.386;18.394;2022-08-02T11:13:26;99918.61;;;30.65;26.00
24440;BME280;12618;54.386;18.394;2022-08-02T11:16:05;99924.33;;;30.87;26.12
24440;BME280;12618;54.386;18.394;2022-08-02T11:26:44;99918.94;;;31.52;25.94
24440;BME280;12618;54.386;18.394;2022-08-02T11:29:15;99912.84;;;31.50;26.36
24440;BME280;12618;54.386;18.394;2022-08-02T11:31:46;99914.22;;;31.74;25.98
24440;BME280;12618;54.386;18.394;2022-08-02T11:34:17;99914.12;;;31.54;25.49
24440;BME280;12618;54.386;18.394;2022-08-02T11:36:51;99915.41;;;31.17;25.02
24440;BME280;12618;54.386;18.394;2022-08-02T11:39:22;99922.31;;;30.85;25.47
24440;BME280;12618;54.386;18.394;2022-08-02T11:41:55;99924.12;;;30.39;25.68
24440;BME280;12618;54.386;18.394;2022-08-02T11:44:29;99914.80;;;30.06;25.94
24440;BME280;12618;54.386;18.394;2022-08-02T11:47:01;99914.00;;;29.91;26.12
24440;BME280;12618;54.386;18.394;2022-08-02T11:49:32;99916.63;;;29.95;26.30
24440;BME280;12618;54.386;18.394;2022-08-02T11:52:05;99924.92;;;29.87;26.36
24440;BME280;12618;54.386;18.394;2022-08-02T11:54:37;99924.13;;;29.97;26.67
24440;BME280;12618;54.386;18.394;2022-08-02T11:57:20;99918.94;;;30.45;26.73
24440;BME280;12618;54.386;18.394;2022-08-02T11:59:53;99925.97;;;30.71;25.95
24440;BME280;12618;54.386;18.394;2022-08-02T12:02:25;99921.89;;;30.50;26.60
24440;BME280;12618;54.386;18.394;2022-08-02T12:05:02;99916.27;;;30.62;25.44
24440;BME280;12618;54.386;18.394;2022-08-02T12:07:38;99927.81;;;30.64;26.15
24440;BME280;12618;54.386;18.394;2022-08-02T12:10:12;99927.08;;;30.94;26.13
24440;BME280;12618;54.386;18.394;2022-08-02T12:12:55;99933.23;;;31.13;25.91
24440;BME280;12618;54.386;18.394;2022-08-02T12:15:44;99934.95;;;31.21;25.91
24440;BME280;12618;54.386;18.394;2022-08-02T12:18:18;99921.14;;;31.53;26.02
24440;BME280;12618;54.386;18.394;2022-08-02T12:21:22;99917.20;;;31.86;26.07
24440;BME280;12618;54.386;18.394;2022-08-02T12:23:53;99923.97;;;32.03;25.77
24440;BME280;12618;54.386;18.394;2022-08-02T12:26:24;99918.28;;;31.91;25.82
24440;BME280;12618;54.386;18.394;2022-08-02T12:28:56;99931.89;;;31.84;26.24
24440;BME280;12618;54.386;18.394;2022-08-02T12:31:46;99926.94;;;31.60;25.29
24440;BME280;12618;54.386;18.394;2022-08-02T12:34:17;99924.52;;;30.86;25.56
24440;BME280;12618;54.386;18.394;2022-08-02T12:39:44;99929.67;;;29.63;26.27
24440;BME280;12618;54.386;18.394;2022-08-02T12:42:16;99923.00;;;29.55;26.47
24440;BME280;12618;54.386;18.394;2022-08-02T12:44:55;99921.13;;;29.41;26.84
24440;BME280;12618;54.386;18.394;2022-08-02T12:47:29;99930.83;;;29.54;26.85
24440;BME280;12618;54.386;18.394;2022-08-02T12:50:18;99925.92;;;29.64;27.65
24440;BME280;12618;54.386;18.394;2022-08-02T12:52:49;99916.77;;;29.36;29.83
24440;BME280;12618;54.386;18.394;2022-08-02T12:55:26;99929.37;;;28.70;30.83
24440;BME280;12618;54.386;18.394;2022-08-02T12:57:59;99931.23;;;28.70;31.19
24440;BME280;12618;54.386;18.394;2022-08-02T13:00:35;99923.88;;;28.78;31.87
24440;BME280;12618;54.386;18.394;2022-08-02T13:03:07;99916.02;;;28.98;32.25
24440;BME280;12618;54.386;18.394;2022-08-02T13:05:38;99922.24;;;29.32;32.71
24440;BME280;12618;54.386;18.394;2022-08-02T13:08:09;99927.22;;;29.58;32.62
24440;BME280;12618;54.386;18.394;2022-08-02T13:10:40;99915.91;;;29.50;32.90
24440;BME280;12618;54.386;18.394;2022-08-02T13:13:11;99919.11;;;29.39;33.98
24440;BME280;12618;54.386;18.394;2022-08-02T13:15:41;99911.41;;;28.84;33.84
24440;BME280;12618;54.386;18.394;2022-08-02T13:18:12;99917.72;;;28.43;34.64
24440;BME280;12618;54.386;18.394;2022-08-02T13:20:43;99921.74;;;28.28;36.08
24440;BME280;12618;54.386;18.394;2022-08-02T13:23:14;99917.91;;;27.65;36.01
24440;BME280;12618;54.386;18.394;2022-08-02T13:25:45;99916.05;;;27.18;36.59
24440;BME280;12618;54.386;18.394;2022-08-02T13:28:16;99911.99;;;27.18;37.56
24440;BME280;12618;54.386;18.394;2022-08-02T13:30:48;99909.56;;;27.39;37.23
24440;BME280;12618;54.386;18.394;2022-08-02T13:33:19;99915.03;;;27.27;37.20
24440;BME280;12618;54.386;18.394;2022-08-02T13:35:50;99912.41;;;26.99;38.34
24440;BME280;12618;54.386;18.394;2022-08-02T13:38:21;99907.35;;;26.79;37.77
24440;BME280;12618;54.386;18.394;2022-08-02T13:40:52;99895.50;;;26.80;38.38
24440;BME280;12618;54.386;18.394;2022-08-02T13:43:38;99899.23;;;26.79;38.42
24440;BME280;12618;54.386;18.394;2022-08-02T13:46:09;99903.69;;;26.48;39.28